Time;durP1;ratioP1;P1;durP2;ratioP2;P2;SDS_P1;SDS_P2;PMS_P1;PMS_P2;Temp;Humidity;BMP_temperature;BMP_pressure;BME280_temperature;BME280_humidity;BME280_pressure;Samples;Min_cycle;Max_cycle;Signal;HPM_P1;HPM_P2
2022/06/19 00:02:00;;;;;;;;;;;;;;;11.38;100.00;99663.24;1790268;80;20163;-73
2022/06/19 00:04:32;;;;;;;;;;;;;;;11.35;100.00;99661.69;1794791;80;20478;-73
2022/06/19 00:07:01;;;;;;;;;;;;;;;11.32;100.00;99661.77;1794900;80;20080;-72
2022/06/19 00:09:29;;;;;;;;;;;;;;;11.30;100.00;99661.83;1795278;80;20115;-72
2022/06/19 00:11:58;;;;;;;;;;;;;;;11.30;100.00;99655.77;1769009;80;20108;-72
2022/06/19 00:14:28;;;;;;;;;;;;;;;11.28;100.00;99661.34;1795145;80;20108;-72
2022/06/19 00:16:59;;;;;;;;;;;;;;;11.22;100.00;99662.86;1794613;80;20107;-72
2022/06/19 00:19:31;;;;;;;;;;;;;;;11.18;100.00;99656.94;1768574;80;20111;-72
2022/06/19 00:22:02;;;;;;;;;;;;;;;11.16;100.00;99660.00;1754012;81;20118;-72
2022/06/19 00:24:33;;;;;;;;;;;;;;;11.15;100.00;99663.06;1758490;81;20075;-72
2022/06/19 00:27:14;;;;;;;;;;;;;;;11.14;100.00;99666.94;1758330;81;20114;-72
2022/06/19 00:29:33;;;;;;;;;;;;;;;11.12;100.00;99666.44;1756417;81;21142;-72
2022/06/19 00:32:00;;;;;;;;;;;;;;;11.12;100.00;99669.19;1733989;81;20093;-72
2022/06/19 00:34:31;;;;;;;;;;;;;;;11.10;100.00;99665.38;1758406;81;20102;-72
2022/06/19 00:37:03;;;;;;;;;;;;;;;11.09;100.00;99666.51;1757958;81;20123;-72
2022/06/19 00:39:32;;;;;;;;;;;;;;;11.08;100.00;99669.58;1757746;81;20086;-72
2022/06/19 00:42:01;;;;;;;;;;;;;;;11.06;100.00;99663.59;1758408;81;21177;-72
2022/06/19 00:44:30;;;;;;;;;;;;;;;11.03;100.00;99668.34;1758053;81;20094;-73
2022/06/19 00:47:07;;;;;;;;;;;;;;;11.00;100.00;99672.52;1757077;81;20094;-72
2022/06/19 00:49:39;;;;;;;;;;;;;;;10.96;100.00;99671.56;1758451;81;20083;-72
2022/06/19 00:52:14;;;;;;;;;;;;;;;10.94;100.00;99663.39;1722755;81;20252;-72
2022/06/19 00:54:48;;;;;;;;;;;;;;;10.90;100.00;99661.84;1758348;81;21200;-72
2022/06/19 00:57:15;;;;;;;;;;;;;;;10.89;100.00;99665.14;1760774;80;20445;-72
2022/06/19 00:59:53;;;;;;;;;;;;;;;10.87;100.00;99672.08;1758758;81;20102;-72
2022/06/19 01:02:19;;;;;;;;;;;;;;;10.84;100.00;99670.77;1761224;81;20436;-72
2022/06/19 01:04:53;;;;;;;;;;;;;;;10.83;100.00;99666.97;1739078;81;20167;-72
2022/06/19 01:07:21;;;;;;;;;;;;;;;10.80;100.00;99665.66;1739724;81;20145;-73
2022/06/19 01:09:52;;;;;;;;;;;;;;;10.78;100.00;99667.91;1758634;81;20454;-72
2022/06/19 01:12:26;;;;;;;;;;;;;;;10.76;100.00;99665.22;1757943;81;20114;-72
2022/06/19 01:15:00;;;;;;;;;;;;;;;10.74;100.00;99671.03;1751603;81;20203;-72
2022/06/19 01:17:28;;;;;;;;;;;;;;;10.72;100.00;99664.23;1758557;81;20106;-72
2022/06/19 01:20:01;;;;;;;;;;;;;;;10.71;100.00;99663.42;1758368;81;21214;-72
2022/06/19 01:22:50;;;;;;;;;;;;;;;10.70;100.00;99667.84;1761491;80;20070;-72
2022/06/19 01:25:19;;;;;;;;;;;;;;;10.70;100.00;99666.48;1741965;81;34596;-72
2022/06/19 01:30:49;;;;;;;;;;;;;;;10.69;100.00;99671.72;1754570;81;20474;-72
2022/06/19 01:33:18;;;;;;;;;;;;;;;10.67;100.00;99669.28;1798291;79;21140;-72
2022/06/19 01:35:47;;;;;;;;;;;;;;;10.67;100.00;99665.17;1797275;79;20093;-72
2022/06/19 01:38:21;;;;;;;;;;;;;;;10.66;100.00;99664.92;1797548;79;20077;-72
2022/06/19 01:40:54;;;;;;;;;;;;;;;10.66;100.00;99667.66;1794357;79;20437;-72
2022/06/19 01:43:22;;;;;;;;;;;;;;;10.67;100.00;99665.73;1798272;79;20098;-72
2022/06/19 01:45:53;;;;;;;;;;;;;;;10.67;100.00;99662.42;1798173;80;21490;-72
2022/06/19 01:48:27;;;;;;;;;;;;;;;10.67;100.00;99659.67;1799442;79;20085;-72
2022/06/19 01:50:53;;;;;;;;;;;;;;;10.71;100.00;99669.47;1798046;80;20093;-72
2022/06/19 01:53:42;;;;;;;;;;;;;;;10.72;100.00;99662.86;1797366;79;20101;-72
2022/06/19 01:56:07;;;;;;;;;;;;;;;10.73;100.00;99661.17;1797773;79;20109;-72
2022/06/19 01:58:40;;;;;;;;;;;;;;;10.75;100.00;99661.67;1801155;79;20066;-72
2022/06/19 02:01:08;;;;;;;;;;;;;;;10.82;100.00;99663.97;1773808;81;20120;-72
2022/06/19 02:03:39;;;;;;;;;;;;;;;10.90;100.00;99667.33;1773213;80;20101;-72
2022/06/19 02:06:15;;;;;;;;;;;;;;;10.99;100.00;99657.73;1797803;79;20738;-72
2022/06/19 02:08:45;;;;;;;;;;;;;;;11.04;100.00;99661.72;1797532;79;20082;-72
2022/06/19 02:11:16;;;;;;;;;;;;;;;11.10;100.00;99658.52;1797857;80;21256;-72
2022/06/19 02:13:42;;;;;;;;;;;;;;;11.16;100.00;99662.75;1773491;81;20140;-72
2022/06/19 02:16:13;;;;;;;;;;;;;;;11.23;100.00;99670.53;1790007;78;20098;-71
2022/06/19 02:18:46;;;;;;;;;;;;;;;11.27;100.00;99672.89;1797571;80;20418;-71
2022/06/19 02:21:18;;;;;;;;;;;;;;;11.31;100.00;99675.82;1771629;80;20161;-71
2022/06/19 02:23:55;;;;;;;;;;;;;;;11.34;100.00;99676.56;1797613;79;21613;-71
2022/06/19 02:26:26;;;;;;;;;;;;;;;11.34;100.00;99677.38;1766868;81;20501;-72
2022/06/19 02:29:06;;;;;;;;;;;;;;;11.36;100.00;99679.80;1799203;79;20076;-72
2022/06/19 02:31:23;;;;;;;;;;;;;;;11.38;100.00;99684.42;1776069;79;20146;-72
2022/06/19 02:33:59;;;;;;;;;;;;;;;11.40;100.00;99685.72;1798741;79;20425;-71
2022/06/19 02:36:35;;;;;;;;;;;;;;;11.46;100.00;99683.64;1787394;80;21158;-70
2022/06/19 02:39:17;;;;;;;;;;;;;;;11.49;100.00;99684.38;1785683;80;20111;-70
2022/06/19 02:42:05;;;;;;;;;;;;;;;11.55;100.00;99682.52;1772186;81;20117;-70
2022/06/19 02:44:35;;;;;;;;;;;;;;;11.62;100.00;99683.42;1770858;81;20107;-70
2022/06/19 02:47:05;;;;;;;;;;;;;;;11.68;100.00;99684.91;1767269;81;20103;-70
2022/06/19 02:49:34;;;;;;;;;;;;;;;11.75;100.00;99685.24;1791830;80;21125;-70
2022/06/19 02:52:19;;;;;;;;;;;;;;;11.80;100.00;99687.87;1792429;80;20119;-70
2022/06/19 02:54:36;;;;;;;;;;;;;;;11.85;100.00;99686.34;1756811;81;20094;-70
2022/06/19 02:57:04;;;;;;;;;;;;;;;11.91;100.00;99688.38;1757808;81;20082;-70
2022/06/19 02:59:30;;;;;;;;;;;;;;;11.96;100.00;99684.67;1776004;81;20125;-71
2022/06/19 03:02:01;;;;;;;;;;;;;;;12.04;100.00;99683.31;1775918;81;21534;-70
2022/06/19 03:04:36;;;;;;;;;;;;;;;12.13;100.00;99682.72;1775859;81;20238;-71
2022/06/19 03:07:14;;;;;;;;;;;;;;;12.25;100.00;99683.46;1775290;81;20090;-68
2022/06/19 03:09:44;;;;;;;;;;;;;;;12.33;100.00;99676.34;1775232;81;20086;-72
2022/06/19 03:12:09;;;;;;;;;;;;;;;12.42;100.00;99671.08;1748748;81;20090;-71
2022/06/19 03:14:41;;;;;;;;;;;;;;;12.54;100.00;99676.73;1749637;81;21211;-72
2022/06/19 03:17:06;;;;;;;;;;;;;;;12.66;100.00;99675.27;1775511;81;20425;-71
2022/06/19 03:19:36;;;;;;;;;;;;;;;12.78;100.00;99672.63;1763037;80;20072;-71
2022/06/19 03:22:09;;;;;;;;;;;;;;;12.92;100.00;99673.81;1745470;82;20116;-72
2022/06/19 03:24:41;;;;;;;;;;;;;;;13.06;100.00;99667.53;1746216;82;20100;-71
2022/06/19 03:27:06;;;;;;;;;;;;;;;13.22;100.00;99672.78;1746536;82;21171;-71
2022/06/19 03:29:35;;;;;;;;;;;;;;;13.38;100.00;99671.64;1720999;82;20096;-72
2022/06/19 03:32:08;;;;;;;;;;;;;;;13.55;100.00;99671.56;1746984;82;20107;-71
2022/06/19 03:34:36;;;;;;;;;;;;;;;13.71;100.00;99668.47;1721548;82;20474;-71
2022/06/19 03:37:05;;;;;;;;;;;;;;;13.92;100.00;99661.58;1746651;81;20132;-71
2022/06/19 03:39:33;;;;;;;;;;;;;;;14.13;100.00;99661.59;1747248;82;21134;-71
2022/06/19 03:42:02;;;;;;;;;;;;;;;14.33;100.00;99659.41;1746918;82;20076;-71
2022/06/19 03:44:34;;;;;;;;;;;;;;;14.54;100.00;99655.25;1747486;82;20463;-70
2022/06/19 03:47:07;;;;;;;;;;;;;;;14.75;100.00;99656.02;1742518;82;20434;-71
2022/06/19 03:49:33;;;;;;;;;;;;;;;14.94;100.00;99655.50;1743738;80;20140;-71
2022/06/19 03:52:02;;;;;;;;;;;;;;;15.16;98.40;99652.86;1774868;79;21257;-70
2022/06/19 03:54:31;;;;;;;;;;;;;;;15.36;96.25;99649.20;1767156;81;20229;-71
2022/06/19 03:57:03;;;;;;;;;;;;;;;15.56;93.73;99648.86;1743607;81;20163;-73
2022/06/19 03:59:34;;;;;;;;;;;;;;;15.76;92.24;99652.66;1754490;80;20086;-70
2022/06/19 04:02:09;;;;;;;;;;;;;;;15.96;90.35;99646.75;1766858;80;20161;-72
2022/06/19 04:04:39;;;;;;;;;;;;;;;16.13;89.32;99654.80;1767362;81;20496;-69
2022/06/19 04:07:11;;;;;;;;;;;;;;;16.29;89.13;99655.64;1735863;81;20094;-71
2022/06/19 04:09:43;;;;;;;;;;;;;;;16.47;88.82;99648.66;1743433;81;20178;-70
2022/06/19 04:12:12;;;;;;;;;;;;;;;16.66;87.93;99647.23;1762892;81;20142;-70
2022/06/19 04:14:56;;;;;;;;;;;;;;;16.82;86.97;99654.97;1762991;81;20097;-72
2022/06/19 04:17:18;;;;;;;;;;;;;;;16.95;86.89;99662.64;1764641;81;20082;-70
2022/06/19 04:19:46;;;;;;;;;;;;;;;17.04;85.57;99658.55;1766315;81;20083;-70
2022/06/19 04:22:14;;;;;;;;;;;;;;;17.11;84.32;99660.12;1768205;81;20438;-68
2022/06/19 04:24:47;;;;;;;;;;;;;;;17.19;83.98;99654.17;1740242;81;20110;-69
2022/06/19 04:27:17;;;;;;;;;;;;;;;17.32;84.03;99660.45;1797215;79;20134;-68
2022/06/19 04:29:50;;;;;;;;;;;;;;;17.45;82.91;99650.84;1771898;81;21602;-68
2022/06/19 04:32:18;;;;;;;;;;;;;;;17.56;81.27;99648.33;1770299;81;20436;-68
2022/06/19 04:34:49;;;;;;;;;;;;;;;17.67;80.26;99655.78;1771343;81;20177;-69
2022/06/19 04:37:23;;;;;;;;;;;;;;;17.80;79.94;99662.03;1770924;81;20599;-69
2022/06/19 04:39:52;;;;;;;;;;;;;;;17.92;79.42;99661.89;1796763;80;20452;-69
2022/06/19 04:42:20;;;;;;;;;;;;;;;18.05;77.92;99660.60;1797555;80;21505;-69
2022/06/19 04:44:46;;;;;;;;;;;;;;;18.17;76.97;99663.84;1795822;80;20480;-72
2022/06/19 04:47:16;;;;;;;;;;;;;;;18.26;75.64;99657.48;1797615;80;20161;-70
2022/06/19 04:49:42;;;;;;;;;;;;;;;18.34;75.35;99657.06;1797544;80;20910;-68
2022/06/19 04:52:09;;;;;;;;;;;;;;;18.44;75.21;99660.06;1797617;80;20109;-69
2022/06/19 04:54:35;;;;;;;;;;;;;;;18.54;75.06;99661.42;1797675;80;21842;-67
2022/06/19 04:57:02;;;;;;;;;;;;;;;18.65;74.26;99656.92;1795705;79;20121;-70
2022/06/19 04:59:28;;;;;;;;;;;;;;;18.78;74.67;99657.56;1790264;80;20110;-68
2022/06/19 05:01:55;;;;;;;;;;;;;;;18.92;73.40;99658.42;1791895;80;20264;-68
2022/06/19 05:04:21;;;;;;;;;;;;;;;19.06;73.46;99657.30;1787560;80;20135;-68
2022/06/19 05:06:48;;;;;;;;;;;;;;;19.19;72.55;99657.31;1787211;79;21123;-72
2022/06/19 05:09:14;;;;;;;;;;;;;;;19.33;72.57;99656.76;1787463;80;20485;-72
2022/06/19 05:11:41;;;;;;;;;;;;;;;19.49;71.69;99658.83;1787303;80;20147;-70
2022/06/19 05:14:07;;;;;;;;;;;;;;;19.63;71.21;99668.84;1787226;80;20093;-70
2022/06/19 05:16:35;;;;;;;;;;;;;;;19.77;70.68;99673.21;1789387;80;20113;-70
2022/06/19 05:19:03;;;;;;;;;;;;;;;19.89;70.43;99669.41;1792601;80;20985;-69
2022/06/19 05:21:29;;;;;;;;;;;;;;;20.00;69.42;99669.58;1791021;80;20075;-68
2022/06/19 05:23:56;;;;;;;;;;;;;;;20.08;69.08;99671.28;1797744;80;20432;-68
2022/06/19 05:26:26;;;;;;;;;;;;;;;20.18;68.58;99675.41;1797841;80;20502;-69
2022/06/19 05:28:53;;;;;;;;;;;;;;;20.27;68.31;99676.70;1797899;78;20113;-69
2022/06/19 05:31:19;;;;;;;;;;;;;;;20.39;67.19;99674.30;1797913;79;21605;-69
2022/06/19 05:33:45;;;;;;;;;;;;;;;20.44;67.34;99678.95;1797673;79;20125;-69
2022/06/19 05:36:12;;;;;;;;;;;;;;;20.50;66.97;99680.83;1796699;78;20173;-70
2022/06/19 05:38:40;;;;;;;;;;;;;;;20.56;66.40;99686.28;1773031;80;20141;-71
2022/06/19 05:41:06;;;;;;;;;;;;;;;20.62;66.32;99688.14;1797836;78;20448;-68
2022/06/19 05:43:34;;;;;;;;;;;;;;;20.70;66.79;99687.05;1797839;80;21139;-70
2022/06/19 05:46:03;;;;;;;;;;;;;;;20.79;66.84;99688.95;1773744;80;20102;-70
2022/06/19 05:48:30;;;;;;;;;;;;;;;20.90;66.80;99698.22;1797807;79;20077;-72
2022/06/19 05:51:02;;;;;;;;;;;;;;;21.00;66.54;99697.54;1797561;80;20098;-72
2022/06/19 05:53:30;;;;;;;;;;;;;;;21.10;66.84;99694.06;1797455;79;20089;-72
2022/06/19 05:55:57;;;;;;;;;;;;;;;21.22;66.74;99693.61;1797843;80;20984;-70
2022/06/19 05:58:23;;;;;;;;;;;;;;;21.28;65.87;99681.72;1797798;80;20459;-71
2022/06/19 06:00:49;;;;;;;;;;;;;;;21.33;64.79;99688.94;1797850;79;20102;-71
2022/06/19 06:03:19;;;;;;;;;;;;;;;21.38;64.88;99682.97;1798029;78;20491;-72
2022/06/19 06:05:46;;;;;;;;;;;;;;;21.46;65.21;99688.03;1798107;79;20150;-70
2022/06/19 06:08:12;;;;;;;;;;;;;;;21.55;63.72;99687.92;1797891;80;21103;-70
2022/06/19 06:10:40;;;;;;;;;;;;;;;21.63;63.94;99697.16;1797815;78;20410;-70
2022/06/19 06:13:07;;;;;;;;;;;;;;;21.73;62.79;99700.05;1797856;80;20078;-71
2022/06/19 06:15:34;;;;;;;;;;;;;;;21.82;61.12;99694.72;1797767;80;20105;-70
2022/06/19 06:18:02;;;;;;;;;;;;;;;21.86;60.60;99696.36;1797924;80;20081;-71
2022/06/19 06:20:29;;;;;;;;;;;;;;;21.92;60.77;99695.40;1797848;80;21176;-70
2022/06/19 06:22:57;;;;;;;;;;;;;;;21.97;61.83;99697.20;1797806;79;20414;-69
2022/06/19 06:25:23;;;;;;;;;;;;;;;22.03;60.04;99697.67;1768362;80;20105;-69
2022/06/19 06:27:51;;;;;;;;;;;;;;;22.08;59.00;99690.33;1773507;80;20082;-68
2022/06/19 06:30:17;;;;;;;;;;;;;;;22.13;59.30;99693.34;1773680;80;20074;-68
2022/06/19 06:32:44;;;;;;;;;;;;;;;22.19;57.63;99694.59;1798163;80;20781;-68
2022/06/19 06:35:10;;;;;;;;;;;;;;;22.24;56.89;99687.23;1797802;80;20113;-68
2022/06/19 06:37:38;;;;;;;;;;;;;;;22.31;57.78;99686.67;1797927;80;20090;-72
2022/06/19 06:40:06;;;;;;;;;;;;;;;22.40;57.67;99682.13;1797620;79;20145;-70
2022/06/19 06:42:33;;;;;;;;;;;;;;;22.51;56.33;99686.38;1797983;79;20109;-68
2022/06/19 06:44:59;;;;;;;;;;;;;;;22.60;56.28;99683.98;1797956;80;21241;-68
2022/06/19 06:47:27;;;;;;;;;;;;;;;22.71;57.52;99682.04;1797781;80;20078;-69
2022/06/19 06:49:53;;;;;;;;;;;;;;;22.86;55.89;99679.52;1788295;80;20086;-68
2022/06/19 06:52:20;;;;;;;;;;;;;;;22.97;55.75;99683.16;1776952;80;20170;-68
2022/06/19 06:54:46;;;;;;;;;;;;;;;23.07;54.06;99677.98;1766033;81;20094;-70
2022/06/19 06:57:12;;;;;;;;;;;;;;;23.15;53.13;99669.77;1766253;81;21070;-68
2022/06/19 06:59:39;;;;;;;;;;;;;;;23.24;53.04;99666.78;1783978;80;20433;-69
2022/06/19 07:02:06;;;;;;;;;;;;;;;23.36;54.55;99667.80;1798205;80;20114;-69
2022/06/19 07:04:32;;;;;;;;;;;;;;;23.49;52.56;99662.61;1796832;79;20117;-73
2022/06/19 07:06:58;;;;;;;;;;;;;;;23.60;52.36;99664.05;1788192;78;20170;-71
2022/06/19 07:09:25;;;;;;;;;;;;;;;23.66;51.49;99661.84;1797636;78;21687;-71
2022/06/19 07:11:52;;;;;;;;;;;;;;;23.71;51.97;99658.61;1772206;78;20124;-68
2022/06/19 07:14:19;;;;;;;;;;;;;;;23.84;52.26;99663.20;1766234;80;20458;-69
2022/06/19 07:16:46;;;;;;;;;;;;;;;23.98;52.49;99658.98;1766397;81;20140;-73
2022/06/19 07:19:12;;;;;;;;;;;;;;;24.09;49.37;99656.16;1764186;81;20172;-69
2022/06/19 07:21:39;;;;;;;;;;;;;;;24.12;49.64;99652.55;1766400;81;21180;-69
2022/06/19 07:24:05;;;;;;;;;;;;;;;24.18;48.70;99652.93;1765383;80;20080;-71
2022/06/19 07:26:32;;;;;;;;;;;;;;;24.23;46.74;99650.52;1764109;80;20156;-70
2022/06/19 07:28:58;;;;;;;;;;;;;;;24.30;46.88;99646.89;1787477;80;20080;-70
2022/06/19 07:31:25;;;;;;;;;;;;;;;24.38;47.72;99639.25;1769078;81;20090;-70
2022/06/19 07:33:52;;;;;;;;;;;;;;;24.45;47.05;99643.43;1742774;82;21272;-70
2022/06/19 07:36:20;;;;;;;;;;;;;;;24.52;47.77;99642.00;1787192;80;20608;-70
2022/06/19 07:38:47;;;;;;;;;;;;;;;24.65;47.53;99644.55;1769327;81;20101;-70
2022/06/19 07:41:13;;;;;;;;;;;;;;;24.83;46.16;99638.23;1743633;81;20193;-69
2022/06/19 07:43:43;;;;;;;;;;;;;;;24.90;44.71;99628.95;1775489;79;20178;-70
2022/06/19 07:46:10;;;;;;;;;;;;;;;24.93;45.95;99628.92;1758433;81;21087;-69
2022/06/19 07:51:21;;;;;;;;;;;;;;;24.96;45.35;99622.52;1791190;80;20155;-70
2022/06/19 07:53:48;;;;;;;;;;;;;;;25.01;44.35;99620.69;1790846;80;20440;-70
2022/06/19 07:56:15;;;;;;;;;;;;;;;25.03;46.15;99620.87;1790578;80;20147;-69
2022/06/19 07:58:41;;;;;;;;;;;;;;;25.12;46.36;99622.63;1790743;80;21050;-69
2022/06/19 08:01:08;;;;;;;;;;;;;;;25.22;45.57;99616.92;1790990;80;20412;-68
2022/06/19 08:03:34;;;;;;;;;;;;;;;25.29;45.35;99611.86;1791059;80;20080;-71
2022/06/19 08:06:01;;;;;;;;;;;;;;;25.41;44.14;99614.78;1790407;80;20455;-74
2022/06/19 08:08:28;;;;;;;;;;;;;;;25.48;43.67;99616.09;1791038;80;20080;-69
2022/06/19 08:10:55;;;;;;;;;;;;;;;25.59;44.34;99621.02;1791144;80;21740;-71
2022/06/19 08:13:24;;;;;;;;;;;;;;;25.72;43.39;99624.94;1790953;80;20139;-68
2022/06/19 08:15:54;;;;;;;;;;;;;;;25.84;43.31;99616.59;1790912;80;20127;-72
2022/06/19 08:18:20;;;;;;;;;;;;;;;25.94;42.74;99610.86;1791375;80;20092;-67
2022/06/19 08:20:47;;;;;;;;;;;;;;;26.05;42.12;99612.73;1791346;80;20439;-68
2022/06/19 08:23:14;;;;;;;;;;;;;;;26.17;40.54;99603.76;1792395;80;21137;-68
2022/06/19 08:25:41;;;;;;;;;;;;;;;26.33;40.20;99604.00;1789678;80;20103;-68
2022/06/19 08:28:08;;;;;;;;;;;;;;;26.50;39.92;99602.98;1789717;80;20093;-68
2022/06/19 08:30:36;;;;;;;;;;;;;;;26.70;39.13;99598.86;1766463;81;20094;-68
2022/06/19 08:33:04;;;;;;;;;;;;;;;26.85;38.78;99591.01;1767545;81;20094;-69
2022/06/19 08:35:32;;;;;;;;;;;;;;;27.02;38.67;99595.61;1767473;81;21539;-71
2022/06/19 08:38:05;;;;;;;;;;;;;;;27.24;38.21;99601.08;1767805;81;20078;-71
2022/06/19 08:40:55;;;;;;;;;;;;;;;27.44;36.88;99604.58;1767104;81;20402;-71
2022/06/19 08:43:40;;;;;;;;;;;;;;;27.58;36.58;99601.52;1789700;80;20537;-71
2022/06/19 08:46:31;;;;;;;;;;;;;;;27.73;35.54;99591.58;1790971;80;20115;-73
2022/06/19 08:49:22;;;;;;;;;;;;;;;27.78;35.91;99600.16;1790863;80;22522;-72
2022/06/19 08:52:10;;;;;;;;;;;;;;;27.94;33.63;99587.56;1790770;79;20088;-70
2022/06/19 08:54:50;;;;;;;;;;;;;;;28.08;33.76;99583.06;1790196;80;20107;-69
2022/06/19 08:57:26;;;;;;;;;;;;;;;28.10;34.50;99581.22;1802995;79;20109;-71
2022/06/19 08:59:58;;;;;;;;;;;;;;;28.17;34.24;99587.52;1803058;79;20113;-72
2022/06/19 09:02:51;;;;;;;;;;;;;;;28.22;33.76;99587.04;1794287;80;20096;-71
2022/06/19 09:05:38;;;;;;;;;;;;;;;28.28;33.37;99587.94;1794043;80;20435;-69
2022/06/19 09:08:36;;;;;;;;;;;;;;;28.33;33.20;99574.09;1770272;79;20090;-70
2022/06/19 09:11:09;;;;;;;;;;;;;;;28.43;34.39;99582.16;1803092;79;20072;-70
2022/06/19 09:14:08;;;;;;;;;;;;;;;28.70;34.22;99585.59;1769835;81;20445;-69
2022/06/19 09:16:40;;;;;;;;;;;;;;;28.94;33.07;99586.26;1800732;79;21102;-70
2022/06/19 09:19:32;;;;;;;;;;;;;;;29.00;32.55;99576.02;1769669;81;20094;-70
2022/06/19 09:22:08;;;;;;;;;;;;;;;29.07;31.98;99579.30;1768426;81;20082;-70
2022/06/19 09:24:41;;;;;;;;;;;;;;;29.04;31.44;99577.35;1744962;81;20143;-70
2022/06/19 09:27:07;;;;;;;;;;;;;;;29.14;33.25;99583.37;1771058;80;20420;-70
2022/06/19 09:29:38;;;;;;;;;;;;;;;29.37;31.55;99573.91;1774102;81;21189;-70
2022/06/19 09:32:14;;;;;;;;;;;;;;;29.64;32.03;99570.80;1776214;81;20120;-71
2022/06/19 09:35:00;;;;;;;;;;;;;;;29.83;31.71;99563.59;1798021;80;20145;-70
2022/06/19 09:37:51;;;;;;;;;;;;;;;29.93;31.57;99563.12;1775962;81;20364;-70
2022/06/19 09:40:20;;;;;;;;;;;;;;;29.95;31.34;99566.30;1776378;81;20124;-69
2022/06/19 09:43:00;;;;;;;;;;;;;;;30.05;31.61;99572.91;1750484;81;21159;-70
2022/06/19 09:45:35;;;;;;;;;;;;;;;30.18;32.07;99568.88;1797937;80;20089;-70
2022/06/19 09:48:23;;;;;;;;;;;;;;;30.18;30.17;99563.22;1764538;80;20106;-73
2022/06/19 09:50:56;;;;;;;;;;;;;;;30.14;31.47;99561.11;1796984;80;20089;-70
2022/06/19 09:53:43;;;;;;;;;;;;;;;30.12;29.56;99552.89;1726552;81;20448;-71
2022/06/19 09:56:28;;;;;;;;;;;;;;;30.05;31.37;99549.64;1797818;79;21602;-72
2022/06/19 09:59:11;;;;;;;;;;;;;;;30.06;31.22;99554.06;1773952;81;20166;-71
2022/06/19 10:01:38;;;;;;;;;;;;;;;30.00;31.40;99562.96;1772377;79;20181;-71
2022/06/19 10:04:07;;;;;;;;;;;;;;;30.05;32.22;99546.02;1772148;81;20094;-71
2022/06/19 10:06:54;;;;;;;;;;;;;;;30.13;31.25;99552.45;1797707;78;20093;-70
2022/06/19 10:09:55;;;;;;;;;;;;;;;30.19;31.53;99550.66;1764846;80;21798;-70
2022/06/19 10:12:34;;;;;;;;;;;;;;;30.32;31.51;99548.47;1797785;80;20094;-73
2022/06/19 10:15:04;;;;;;;;;;;;;;;30.48;30.85;99548.39;1726245;81;20199;-71
2022/06/19 10:17:52;;;;;;;;;;;;;;;30.47;30.72;99540.52;1797966;79;20565;-73
2022/06/19 10:20:20;;;;;;;;;;;;;;;30.57;32.06;99551.37;1797977;79;20090;-71
2022/06/19 10:23:20;;;;;;;;;;;;;;;30.69;30.29;99544.91;1749543;81;21830;-74
2022/06/19 10:26:00;;;;;;;;;;;;;;;30.66;30.04;99548.64;1797614;79;20078;-71
2022/06/19 10:28:33;;;;;;;;;;;;;;;30.71;30.66;99549.49;1797321;79;20077;-71
2022/06/19 10:31:10;;;;;;;;;;;;;;;30.85;30.52;99550.47;1769535;81;20124;-73
2022/06/19 10:33:59;;;;;;;;;;;;;;;30.87;30.71;99550.80;1733709;81;20466;-70
2022/06/19 10:36:49;;;;;;;;;;;;;;;30.79;30.57;99552.27;1789945;80;21136;-71
2022/06/19 10:39:37;;;;;;;;;;;;;;;30.67;31.11;99556.52;1789831;79;20088;-74
2022/06/19 10:42:16;;;;;;;;;;;;;;;30.56;31.54;99565.34;1764470;81;20119;-76
2022/06/19 10:45:02;;;;;;;;;;;;;;;30.74;30.46;99561.34;1764666;81;20320;-72
2022/06/19 10:47:48;;;;;;;;;;;;;;;30.92;31.07;99559.98;1764840;81;20431;-71
2022/06/19 10:50:43;;;;;;;;;;;;;;;31.02;29.96;99554.59;1764319;81;20092;-71
2022/06/19 10:53:38;;;;;;;;;;;;;;;31.15;29.87;99553.99;1764799;81;20173;-71
2022/06/19 10:56:21;;;;;;;;;;;;;;;31.22;29.25;99555.14;1765107;81;20424;-74
2022/06/19 10:58:48;;;;;;;;;;;;;;;31.10;29.68;99565.25;1758652;80;20151;-77
2022/06/19 11:04:10;;;;;;;;;;;;;;;31.36;29.29;99553.88;1784834;79;21097;-75
2022/06/19 11:07:07;;;;;;;;;;;;;;;31.42;29.50;99552.84;1784672;80;20104;-74
2022/06/19 11:09:48;;;;;;;;;;;;;;;31.45;30.45;99553.97;1784808;80;20131;-72
2022/06/19 11:12:35;;;;;;;;;;;;;;;31.34;29.48;99545.82;1784597;80;20104;-73
2022/06/19 11:15:05;;;;;;;;;;;;;;;31.27;29.08;99541.02;1784789;80;20408;-71
2022/06/19 11:17:39;;;;;;;;;;;;;;;31.31;29.34;99541.06;1783586;80;21124;-70
2022/06/19 11:20:26;;;;;;;;;;;;;;;31.38;29.50;99545.70;1784953;80;20140;-71
2022/06/19 11:23:04;;;;;;;;;;;;;;;31.48;29.56;99541.08;1785283;80;20480;-70
2022/06/19 11:25:34;;;;;;;;;;;;;;;31.64;28.99;99532.23;1759497;79;20118;-71
2022/06/19 11:28:07;;;;;;;;;;;;;;;31.82;29.12;99528.93;1766580;81;20098;-72
2022/06/19 11:30:40;;;;;;;;;;;;;;;31.91;27.90;99522.53;1771221;81;22197;-74
2022/06/19 11:33:17;;;;;;;;;;;;;;;31.84;28.44;99519.33;1770054;81;20082;-75
2022/06/19 11:35:48;;;;;;;;;;;;;;;31.80;29.85;99515.03;1756889;81;20424;-75
2022/06/19 11:38:15;;;;;;;;;;;;;;;31.98;29.35;99511.55;1768894;80;20095;-74
2022/06/19 11:40:46;;;;;;;;;;;;;;;32.11;29.14;99515.10;1797316;80;20137;-75
2022/06/19 11:43:22;;;;;;;;;;;;;;;32.14;28.46;99513.55;1797357;80;21056;-74
2022/06/19 11:45:53;;;;;;;;;;;;;;;32.06;27.84;99512.86;1797432;80;20106;-72
2022/06/19 11:48:19;;;;;;;;;;;;;;;31.89;29.24;99503.75;1796523;80;20141;-71
2022/06/19 11:50:52;;;;;;;;;;;;;;;31.98;28.57;99505.23;1770644;80;20078;-73
2022/06/19 11:53:27;;;;;;;;;;;;;;;32.13;27.56;99502.03;1797363;80;20176;-71
2022/06/19 11:56:30;;;;;;;;;;;;;;;32.10;27.72;99502.95;1796050;80;21123;-73
2022/06/19 11:59:01;;;;;;;;;;;;;;;32.03;28.00;99489.03;1795818;80;20088;-71
2022/06/19 12:01:39;;;;;;;;;;;;;;;32.05;29.11;99494.24;1795823;80;20112;-72
2022/06/19 12:04:09;;;;;;;;;;;;;;;32.12;28.49;99494.77;1795693;80;20100;-71
2022/06/19 12:06:46;;;;;;;;;;;;;;;32.27;28.62;99489.99;1784035;80;20474;-71
2022/06/19 12:09:28;;;;;;;;;;;;;;;32.46;28.20;99493.06;1794923;80;21194;-72
2022/06/19 12:12:04;;;;;;;;;;;;;;;32.53;28.15;99487.09;1784607;80;20116;-71
2022/06/19 12:14:34;;;;;;;;;;;;;;;32.58;27.92;99477.96;1795871;80;20096;-72
2022/06/19 12:17:16;;;;;;;;;;;;;;;32.58;27.92;99482.86;1795584;80;20419;-72
2022/06/19 12:19:49;;;;;;;;;;;;;;;32.62;28.13;99486.34;1795785;80;20127;-71
2022/06/19 12:22:15;;;;;;;;;;;;;;;32.68;27.80;99482.42;1795669;80;21316;-71
2022/06/19 12:24:54;;;;;;;;;;;;;;;32.82;28.78;99489.61;1795738;80;20144;-71
2022/06/19 12:27:22;;;;;;;;;;;;;;;32.85;27.21;99482.20;1795116;80;20072;-72
2022/06/19 12:29:53;;;;;;;;;;;;;;;32.77;28.27;99486.75;1794457;80;20125;-71
2022/06/19 12:32:29;;;;;;;;;;;;;;;32.87;28.05;99481.09;1795786;80;20443;-72
2022/06/19 12:34:59;;;;;;;;;;;;;;;32.86;27.51;99485.20;1793368;80;21183;-72
2022/06/19 12:37:27;;;;;;;;;;;;;;;32.98;27.28;99475.73;1789648;79;20089;-72
2022/06/19 12:39:56;;;;;;;;;;;;;;;33.13;27.07;99476.08;1787217;80;20096;-71
2022/06/19 12:42:35;;;;;;;;;;;;;;;33.30;26.74;99481.50;1787026;80;20994;-72
2022/06/19 12:45:09;;;;;;;;;;;;;;;33.18;27.40;99475.30;1770353;80;20168;-71
2022/06/19 12:47:52;;;;;;;;;;;;;;;33.08;27.15;99465.33;1787255;80;21198;-72
2022/06/19 12:50:47;;;;;;;;;;;;;;;33.06;27.51;99474.17;1787141;80;20097;-72
2022/06/19 12:53:38;;;;;;;;;;;;;;;33.09;27.61;99469.75;1786637;80;20096;-71
2022/06/19 12:56:11;;;;;;;;;;;;;;;33.13;26.85;99461.06;1787357;80;20371;-72
2022/06/19 12:58:56;;;;;;;;;;;;;;;33.03;27.07;99463.10;1787319;80;21010;-72
2022/06/19 13:02:01;;;;;;;;;;;;;;;32.95;27.32;99466.08;1787230;80;21629;-71
2022/06/19 13:04:43;;;;;;;;;;;;;;;32.97;27.75;99451.40;1787487;80;20181;-72
2022/06/19 13:07:18;;;;;;;;;;;;;;;33.18;27.84;99456.17;1774917;80;20114;-72
2022/06/19 13:10:06;;;;;;;;;;;;;;;33.45;27.13;99449.11;1784275;80;20106;-71
2022/06/19 13:13:03;;;;;;;;;;;;;;;33.57;26.88;99456.52;1795964;79;20216;-73
2022/06/19 13:16:00;;;;;;;;;;;;;;;33.52;27.19;99455.72;1796909;80;21204;-72
2022/06/19 13:18:53;;;;;;;;;;;;;;;33.42;27.33;99458.59;1796574;79;20144;-73
2022/06/19 13:21:42;;;;;;;;;;;;;;;33.45;26.73;99448.33;1800086;79;20447;-71